Terminal Aerodrome Forecast
Issued by NWS

Home | Current Version | Previous Version | Graphics & Text | Print | Product List | Glossary On
Versions: 1 2 3 4 5 6 7 8 9 10 11 12 13 14 15 16 17
569
FTUS43 KTOP 201158 CCA
TAFMHK
TAF COR
KMHK 201158Z 2012/2112 26011G21KT P6SM BKN008
      TEMPO 2012/2014 5SM BR
     FM201700 27012G22KT P6SM BKN015
     FM201900 27013G22KT P6SM BKN020
     FM202100 27013G22KT P6SM BKN035
     FM210100 27009KT P6SM SCT040=

USA.gov is the U.S. government's official web portal to all federal, state and local government web resources and services.